createdAt,value
2023-03-20T00:01:51.568Z,7.65
2023-03-20T00:03:53.480Z,7.70
2023-03-20T00:05:55.332Z,7.95
2023-03-20T00:07:57.830Z,6.93
2023-03-20T00:09:59.600Z,13.38
2023-03-20T00:12:01.490Z,9.52
2023-03-20T00:14:06.522Z,9.10
2023-03-20T00:16:08.610Z,14.63
2023-03-20T00:18:16.637Z,8.07
2023-03-20T00:20:18.790Z,9.13
2023-03-20T00:22:20.584Z,13.50
2023-03-20T00:24:23.502Z,8.98
2023-03-20T00:26:28.414Z,9.75
2023-03-20T00:28:37.581Z,13.45
2023-03-20T00:30:39.338Z,11.82
2023-03-20T00:32:41.274Z,8.68
2023-03-20T00:34:43.131Z,11.73
2023-03-20T00:36:44.978Z,8.27
2023-03-20T00:38:46.788Z,9.07
2023-03-20T00:40:48.508Z,8.07
2023-03-20T00:42:57.209Z,9.82
2023-03-20T00:44:59.750Z,11.15
2023-03-20T00:47:04.374Z,11.38
2023-03-20T00:49:06.555Z,10.38
2023-03-20T00:51:08.277Z,14.38
2023-03-20T00:53:12.172Z,9.15
2023-03-20T00:55:14.172Z,12.07
2023-03-20T00:57:21.729Z,11.38
2023-03-20T00:59:26.877Z,11.95
2023-03-20T01:01:29.808Z,11.82
2023-03-20T01:03:32.271Z,5.70
2023-03-20T01:05:34.302Z,15.57
2023-03-20T01:07:36.695Z,11.60
2023-03-20T01:09:38.362Z,9.40
2023-03-20T01:11:41.200Z,9.57
2023-03-20T01:13:43.130Z,14.00
2023-03-20T01:15:44.997Z,9.13
2023-03-20T01:17:47.074Z,10.80
2023-03-20T01:19:49.493Z,9.50
2023-03-20T01:21:51.613Z,13.05
2023-03-20T01:23:53.372Z,8.48
2023-03-20T01:25:55.096Z,17.23
2023-03-20T01:27:58.184Z,8.85
2023-03-20T01:29:59.824Z,10.00
2023-03-20T01:32:01.788Z,9.23
2023-03-20T01:34:03.821Z,13.00
2023-03-20T01:36:05.842Z,10.73
2023-03-20T01:38:19.031Z,5.70
2023-03-20T01:40:37.318Z,13.77
2023-03-20T01:42:39.198Z,13.63
2023-03-20T01:44:40.882Z,8.05
2023-03-20T01:46:42.840Z,8.07
2023-03-20T01:49:28.456Z,8.75
2023-03-20T01:51:36.315Z,8.23
2023-03-20T01:53:38.097Z,5.95
2023-03-20T01:55:42.227Z,7.82
2023-03-20T01:57:44.459Z,10.68
2023-03-20T01:59:48.726Z,11.43
2023-03-20T02:01:51.260Z,13.82
2023-03-20T02:03:53.655Z,11.88
2023-03-20T02:05:58.681Z,8.75
2023-03-20T02:08:16.974Z,6.85
2023-03-20T02:10:19.695Z,11.75
2023-03-20T02:12:22.057Z,9.15
2023-03-20T02:14:24.160Z,13.73
2023-03-20T02:16:26.270Z,13.88
2023-03-20T02:18:28.681Z,12.93
2023-03-20T02:20:59.142Z,10.50
2023-03-20T02:23:09.878Z,9.75
2023-03-20T02:25:43.835Z,16.10
2023-03-20T02:28:28.494Z,14.57
2023-03-20T02:30:43.268Z,13.57
2023-03-20T02:32:54.411Z,14.50
2023-03-20T02:35:17.592Z,13.07
2023-03-20T02:37:42.936Z,7.10
2023-03-20T02:39:53.074Z,10.68
2023-03-20T02:41:58.938Z,10.65
2023-03-20T02:44:11.827Z,9.00
2023-03-20T02:46:31.766Z,11.00
2023-03-20T02:49:27.137Z,14.33
2023-03-20T02:51:58.020Z,14.18
2023-03-20T02:54:32.403Z,11.50
2023-03-20T02:57:09.300Z,6.78
2023-03-20T02:59:33.547Z,11.43
2023-03-20T03:01:53.294Z,13.48
2023-03-20T03:04:02.320Z,10.52
2023-03-20T03:06:27.708Z,9.18
2023-03-20T03:08:34.582Z,11.98
2023-03-20T03:10:41.909Z,9.30
2023-03-20T03:12:47.071Z,23.38
2023-03-20T03:15:00.680Z,10.55
2023-03-20T03:17:06.042Z,15.30
2023-03-20T03:19:12.239Z,10.13
2023-03-20T03:21:18.722Z,10.85
2023-03-20T03:23:28.290Z,8.43
2023-03-20T03:25:35.242Z,13.63
2023-03-20T03:27:50.437Z,16.15
2023-03-20T03:30:03.543Z,9.73
2023-03-20T03:32:07.686Z,6.10
2023-03-20T03:34:16.144Z,10.35
2023-03-20T03:36:36.406Z,15.52
2023-03-20T03:38:54.624Z,13.23
2023-03-20T03:41:02.276Z,18.85
2023-03-20T03:43:18.968Z,10.57
2023-03-20T03:45:36.103Z,10.98
2023-03-20T03:48:02.218Z,14.45
2023-03-20T03:50:11.848Z,14.50
2023-03-20T03:52:21.355Z,22.10
2023-03-20T03:54:28.613Z,11.00
2023-03-20T03:56:33.653Z,11.57
2023-03-20T03:58:42.400Z,10.57
2023-03-20T04:00:48.140Z,13.88
2023-03-20T04:02:53.400Z,12.02
2023-03-20T04:04:55.481Z,17.73
2023-03-20T04:06:57.195Z,9.05
2023-03-20T04:08:58.992Z,11.98
2023-03-20T04:11:00.758Z,11.68
2023-03-20T04:13:02.435Z,14.48
2023-03-20T04:15:05.797Z,13.32
2023-03-20T04:17:07.467Z,14.20
2023-03-20T04:19:09.235Z,12.95
2023-03-20T04:21:11.886Z,10.70
2023-03-20T04:23:14.780Z,9.93
2023-03-20T04:25:22.620Z,15.10
2023-03-20T04:27:24.459Z,15.85
2023-03-20T04:29:26.446Z,16.13
2023-03-20T04:31:28.744Z,11.88
2023-03-20T04:33:31.313Z,6.30
2023-03-20T04:35:33.039Z,15.13
2023-03-20T04:37:34.694Z,11.02
2023-03-20T04:39:37.508Z,13.68
2023-03-20T04:41:48.139Z,11.05
2023-03-20T04:43:49.774Z,8.50
2023-03-20T04:45:51.550Z,8.90
2023-03-20T04:47:53.294Z,13.68
2023-03-20T04:49:54.976Z,18.00
2023-03-20T04:51:56.792Z,10.32
2023-03-20T04:53:58.459Z,17.10
2023-03-20T04:56:01.923Z,18.45
2023-03-20T04:58:03.885Z,7.75
2023-03-20T05:00:06.454Z,11.15
2023-03-20T05:02:08.243Z,10.85
2023-03-20T05:04:10.148Z,13.32
2023-03-20T05:06:11.917Z,9.38
2023-03-20T05:08:13.639Z,15.15
2023-03-20T05:10:15.686Z,15.48
2023-03-20T05:12:17.603Z,12.32
2023-03-20T05:14:19.336Z,12.65
2023-03-20T05:16:21.288Z,8.45
2023-03-20T05:18:23.013Z,11.90
2023-03-20T05:20:24.670Z,14.98
2023-03-20T05:22:26.435Z,8.80
2023-03-20T05:24:29.210Z,12.73
2023-03-20T05:26:31.046Z,11.05
2023-03-20T05:28:32.937Z,11.75
2023-03-20T05:30:34.785Z,11.80
2023-03-20T05:32:37.064Z,14.02
2023-03-20T05:34:38.973Z,22.00
2023-03-20T05:36:40.835Z,13.30
2023-03-20T05:38:42.534Z,13.40
2023-03-20T05:40:44.253Z,16.90
2023-03-20T05:42:46.848Z,10.90
2023-03-20T05:44:48.620Z,11.23
2023-03-20T05:46:50.451Z,12.73
2023-03-20T05:48:52.134Z,13.82
2023-03-20T05:50:53.860Z,14.55
2023-03-20T05:52:55.690Z,16.10
2023-03-20T05:54:57.374Z,11.95
2023-03-20T05:56:59.314Z,14.48
2023-03-20T05:59:01.265Z,15.88
2023-03-20T06:01:03.166Z,15.27
2023-03-20T06:03:07.069Z,23.67
2023-03-20T06:05:09.230Z,18.27
2023-03-20T06:07:11.033Z,18.98
2023-03-20T06:09:12.881Z,14.73
2023-03-20T06:11:14.719Z,32.03
2023-03-20T06:13:16.450Z,17.50
2023-03-20T06:15:18.220Z,17.02
2023-03-20T06:17:19.946Z,15.32
2023-03-20T06:19:24.575Z,14.65
2023-03-20T06:21:26.339Z,15.77
2023-03-20T06:23:28.029Z,18.05
2023-03-20T06:25:29.742Z,17.33
2023-03-20T06:27:31.480Z,19.80
2023-03-20T06:29:33.284Z,22.85
2023-03-20T06:31:43.791Z,18.65
2023-03-20T06:33:45.655Z,16.40
2023-03-20T06:35:48.400Z,15.27
2023-03-20T06:37:50.095Z,19.63
2023-03-20T06:39:51.962Z,19.45
2023-03-20T06:41:53.634Z,21.77
2023-03-20T06:43:55.859Z,21.23
2023-03-20T06:45:57.599Z,22.65
2023-03-20T06:47:59.272Z,20.50
2023-03-20T06:50:01.168Z,13.75
2023-03-20T06:52:03.109Z,26.52
2023-03-20T06:54:05.292Z,15.38
2023-03-20T06:56:08.214Z,19.60
2023-03-20T06:58:09.970Z,20.20
2023-03-20T07:00:12.229Z,12.65
2023-03-20T07:02:14.133Z,12.75
2023-03-20T07:04:17.453Z,13.88
2023-03-20T07:06:19.310Z,14.00
2023-03-20T07:08:21.033Z,16.35
2023-03-20T07:10:23.755Z,16.42
2023-03-20T07:12:28.698Z,14.63
2023-03-20T07:14:30.632Z,18.60
2023-03-20T07:16:32.379Z,19.85
2023-03-20T07:18:34.088Z,23.88
2023-03-20T07:20:35.806Z,22.60
2023-03-20T07:22:37.710Z,11.45
2023-03-20T07:24:39.364Z,19.33
2023-03-20T07:26:41.375Z,21.88
2023-03-20T07:28:43.033Z,14.60
2023-03-20T07:30:44.795Z,25.90
2023-03-20T07:32:46.528Z,16.83
2023-03-20T07:34:49.742Z,13.20
2023-03-20T07:36:51.862Z,19.20
2023-03-20T07:38:53.590Z,14.90
2023-03-20T07:40:55.673Z,15.02
2023-03-20T07:42:57.391Z,12.70
2023-03-20T07:44:59.152Z,18.98
2023-03-20T07:47:00.836Z,21.77
2023-03-20T07:49:02.622Z,20.90
2023-03-20T07:51:04.581Z,15.25
2023-03-20T07:53:06.309Z,12.98
2023-03-20T07:55:08.539Z,16.50
2023-03-20T07:57:10.269Z,16.83
2023-03-20T07:59:12.944Z,13.73
2023-03-20T08:01:15.471Z,15.25
2023-03-20T08:03:17.451Z,17.63
2023-03-20T08:05:19.419Z,11.60
2023-03-20T08:07:21.553Z,18.70
2023-03-20T08:09:23.433Z,14.35
2023-03-20T08:11:25.312Z,20.83
2023-03-20T08:13:27.381Z,18.73
2023-03-20T08:15:29.061Z,16.38
2023-03-20T08:17:31.004Z,11.30
2023-03-20T08:19:32.696Z,14.38
2023-03-20T08:21:34.460Z,10.13
2023-03-20T08:23:36.183Z,11.57
2023-03-20T08:25:38.976Z,15.23
2023-03-20T08:27:41.160Z,15.65
2023-03-20T08:29:42.898Z,14.32
2023-03-20T08:31:51.360Z,20.83
2023-03-20T08:33:53.115Z,12.43
2023-03-20T08:35:57.160Z,15.90
2023-03-20T08:37:58.931Z,13.80
2023-03-20T08:40:00.971Z,15.68
2023-03-20T08:42:03.729Z,15.20
2023-03-20T08:44:06.537Z,13.43
2023-03-20T08:46:08.720Z,13.73
2023-03-20T08:48:11.278Z,14.02
2023-03-20T08:50:13.055Z,9.40
2023-03-20T08:52:14.881Z,14.25
2023-03-20T08:54:18.598Z,13.57
2023-03-20T08:56:20.277Z,13.77
2023-03-20T08:58:23.430Z,12.63
2023-03-20T09:00:25.846Z,10.48
2023-03-20T09:02:27.678Z,13.57
2023-03-20T09:04:29.429Z,10.63
2023-03-20T09:06:31.620Z,16.95
2023-03-20T09:08:33.436Z,11.73
2023-03-20T09:10:35.529Z,12.60
2023-03-20T09:12:37.352Z,9.48
2023-03-20T09:14:39.272Z,12.45
2023-03-20T09:16:41.511Z,16.05
2023-03-20T09:18:47.972Z,11.05
2023-03-20T09:20:50.340Z,8.57
2023-03-20T09:22:52.012Z,11.80
2023-03-20T09:24:53.846Z,11.55
2023-03-20T09:26:55.836Z,10.20
2023-03-20T09:28:57.638Z,13.40
2023-03-20T09:31:00.083Z,8.15
2023-03-20T09:33:01.899Z,10.82
2023-03-20T09:35:04.237Z,12.02
2023-03-20T09:37:06.782Z,15.02
2023-03-20T09:39:08.984Z,11.80
2023-03-20T09:41:20.446Z,13.48
2023-03-20T09:43:59.738Z,10.82
2023-03-20T09:46:27.135Z,12.27
2023-03-20T09:48:36.268Z,9.35
2023-03-20T09:51:03.677Z,10.20
2023-03-20T09:53:13.610Z,11.43
2023-03-20T09:55:20.840Z,8.93
2023-03-20T09:57:27.406Z,8.52
2023-03-20T09:59:30.767Z,6.05
2023-03-20T10:01:55.709Z,9.43
2023-03-20T10:04:01.348Z,4.70
2023-03-20T10:06:12.422Z,8.63
2023-03-20T10:08:17.137Z,6.93
2023-03-20T10:10:20.733Z,7.03
2023-03-20T10:12:28.480Z,5.35
2023-03-20T10:14:57.442Z,5.50
2023-03-20T10:17:17.463Z,9.25
2023-03-20T10:19:28.036Z,6.57
2023-03-20T10:21:57.583Z,5.95
2023-03-20T10:24:07.191Z,5.53
2023-03-20T10:26:13.824Z,7.13
2023-03-20T10:28:27.402Z,7.38
2023-03-20T10:30:54.649Z,5.22
2023-03-20T10:33:08.297Z,11.80
2023-03-20T10:35:42.236Z,6.32
2023-03-20T10:38:05.529Z,4.25
2023-03-20T10:40:30.424Z,6.13
2023-03-20T10:42:38.057Z,7.22
2023-03-20T10:44:43.383Z,4.78
2023-03-20T10:46:51.672Z,2.50
2023-03-20T10:49:14.859Z,4.07
2023-03-20T10:51:20.290Z,2.60
2023-03-20T10:53:37.205Z,3.28
2023-03-20T10:55:42.812Z,4.47
2023-03-20T10:58:00.783Z,2.42
2023-03-20T11:00:05.020Z,2.65
2023-03-20T11:02:11.614Z,4.07
2023-03-20T11:04:13.427Z,2.05
2023-03-20T11:06:21.956Z,4.00
2023-03-20T11:08:31.430Z,2.25
2023-03-20T11:10:36.510Z,2.75
2023-03-20T11:12:48.907Z,4.57
2023-03-20T11:14:57.316Z,3.75
2023-03-20T11:17:05.054Z,5.22
2023-03-20T11:19:11.003Z,2.42
2023-03-20T11:21:20.725Z,2.17
2023-03-20T11:23:28.302Z,1.88
2023-03-20T11:25:34.166Z,2.35
2023-03-20T11:27:36.928Z,2.65
2023-03-20T11:29:41.480Z,5.70
2023-03-20T11:32:05.064Z,1.42
2023-03-20T11:34:11.974Z,4.90
2023-03-20T11:36:27.659Z,1.80
2023-03-20T11:38:32.024Z,2.53
2023-03-20T11:40:34.918Z,3.40
2023-03-20T11:42:39.776Z,2.47
2023-03-20T11:44:41.972Z,4.70
2023-03-20T11:46:44.389Z,4.15
2023-03-20T11:48:47.063Z,4.65
2023-03-20T11:50:58.825Z,5.50
2023-03-20T11:53:18.087Z,5.38
2023-03-20T11:55:30.802Z,3.53
2023-03-20T11:57:40.496Z,3.50
2023-03-20T11:59:42.537Z,2.45
2023-03-20T12:01:53.770Z,3.47
2023-03-20T12:03:55.885Z,2.97
2023-03-20T12:06:03.534Z,3.75
2023-03-20T12:08:24.517Z,2.20
2023-03-20T12:10:33.097Z,2.00
2023-03-20T12:12:52.776Z,2.47
2023-03-20T12:15:00.433Z,2.15
2023-03-20T12:17:25.103Z,2.15
2023-03-20T12:19:30.967Z,3.92
2023-03-20T12:22:13.124Z,2.83
2023-03-20T12:24:27.790Z,2.67
2023-03-20T12:26:52.984Z,3.05
2023-03-20T12:29:25.992Z,7.03
2023-03-20T12:31:51.554Z,7.30
2023-03-20T12:34:03.536Z,3.28
2023-03-20T12:36:13.914Z,4.00
2023-03-20T12:38:27.464Z,3.33
2023-03-20T12:40:45.912Z,3.67
2023-03-20T12:42:47.945Z,5.68
2023-03-20T12:45:15.008Z,4.15
2023-03-20T12:47:52.287Z,2.28
2023-03-20T12:50:03.255Z,3.40
2023-03-20T12:52:45.982Z,4.18
2023-03-20T12:54:50.874Z,4.35
2023-03-20T12:56:58.371Z,3.33
2023-03-20T12:59:06.758Z,5.95
2023-03-20T13:01:20.669Z,3.80
2023-03-20T13:03:59.459Z,3.83
2023-03-20T13:06:06.350Z,2.60
2023-03-20T13:08:14.801Z,6.78
2023-03-20T13:11:02.319Z,7.25
2023-03-20T13:13:22.046Z,3.72
2023-03-20T13:15:41.755Z,4.50
2023-03-20T13:17:54.646Z,3.92
2023-03-20T13:20:12.567Z,3.78
2023-03-20T13:22:24.355Z,3.70
2023-03-20T13:24:39.041Z,4.35
2023-03-20T13:26:58.498Z,3.28
2023-03-20T13:29:05.395Z,2.22
2023-03-20T13:31:18.311Z,9.63
2023-03-20T13:33:26.573Z,4.05
2023-03-20T13:35:37.817Z,5.25
2023-03-20T13:37:51.106Z,3.05
2023-03-20T13:40:02.981Z,6.80
2023-03-20T13:42:16.413Z,4.95
2023-03-20T13:44:25.202Z,2.65
2023-03-20T13:46:47.415Z,3.22
2023-03-20T13:48:55.084Z,2.97
2023-03-20T13:51:07.939Z,4.18
2023-03-20T13:53:25.031Z,3.47
2023-03-20T13:55:51.890Z,2.65
2023-03-20T13:58:01.367Z,4.50
2023-03-20T14:00:19.566Z,2.65
2023-03-20T14:02:26.904Z,2.47
2023-03-20T14:04:35.455Z,3.13
2023-03-20T14:06:43.871Z,4.78
2023-03-20T14:08:53.124Z,3.83
2023-03-20T14:11:15.060Z,3.45
2023-03-20T14:13:23.256Z,4.07
2023-03-20T14:15:55.855Z,4.60
2023-03-20T14:18:06.487Z,2.38
2023-03-20T14:20:14.011Z,5.05
2023-03-20T14:22:20.046Z,3.08
2023-03-20T14:24:25.125Z,1.63
2023-03-20T14:26:30.877Z,2.35
2023-03-20T14:28:45.997Z,3.88
2023-03-20T14:30:51.859Z,4.18
2023-03-20T14:33:00.976Z,2.03
2023-03-20T14:35:06.841Z,5.43
2023-03-20T14:37:29.001Z,3.75
2023-03-20T14:39:40.134Z,2.42
2023-03-20T14:42:11.073Z,2.95
2023-03-20T14:46:24.632Z,3.40
2023-03-20T14:48:29.044Z,3.90
2023-03-20T14:50:35.595Z,2.60
2023-03-20T14:52:41.370Z,1.90
2023-03-20T14:54:51.795Z,2.72
2023-03-20T14:56:55.699Z,4.07
2023-03-20T14:59:05.066Z,1.85
2023-03-20T15:01:12.727Z,2.05
2023-03-20T15:03:17.683Z,3.85
2023-03-20T15:05:25.484Z,6.28
2023-03-20T15:07:30.965Z,6.05
2023-03-20T15:09:37.514Z,4.30
2023-03-20T15:11:42.783Z,2.38
2023-03-20T15:13:46.472Z,2.95
2023-03-20T15:15:53.551Z,3.85
2023-03-20T15:17:55.693Z,4.20
2023-03-20T15:20:02.605Z,3.83
2023-03-20T15:22:16.901Z,1.90
2023-03-20T15:24:23.722Z,0.90
2023-03-20T15:26:27.049Z,2.17
2023-03-20T15:28:31.474Z,2.03
2023-03-20T15:30:38.284Z,1.10
2023-03-20T15:32:43.522Z,2.22
2023-03-20T15:34:47.748Z,1.67
2023-03-20T15:36:52.079Z,1.70
2023-03-20T15:39:02.442Z,3.88
2023-03-20T15:41:06.822Z,2.83
2023-03-20T15:43:13.654Z,2.25
2023-03-20T15:45:26.375Z,2.75
2023-03-20T15:47:29.434Z,1.42
2023-03-20T15:49:32.769Z,4.57
2023-03-20T15:51:36.337Z,1.95
2023-03-20T15:53:40.193Z,1.90
2023-03-20T15:55:47.392Z,3.42
2023-03-20T15:57:50.678Z,3.42
2023-03-20T15:59:53.452Z,2.28
2023-03-20T16:01:58.626Z,2.03
2023-03-20T16:04:01.399Z,3.45
2023-03-20T16:06:05.632Z,2.80
2023-03-20T16:08:13.391Z,2.80
2023-03-20T16:10:18.460Z,2.20
2023-03-20T16:12:24.118Z,1.63
2023-03-20T16:14:33.848Z,1.60
2023-03-20T16:16:39.908Z,3.90
2023-03-20T16:19:04.341Z,2.60
2023-03-20T16:21:28.748Z,4.45
2023-03-20T16:23:49.421Z,1.63
2023-03-20T16:26:00.406Z,3.03
2023-03-20T16:28:07.299Z,2.13
2023-03-20T16:30:27.144Z,1.77
2023-03-20T16:32:58.362Z,3.65
2023-03-20T16:35:10.227Z,2.53
2023-03-20T16:37:22.408Z,2.22
2023-03-20T16:39:31.067Z,3.40
2023-03-20T16:41:43.411Z,3.72
2023-03-20T16:43:55.545Z,2.58
2023-03-20T16:46:06.940Z,1.15
2023-03-20T16:48:28.737Z,3.15
2023-03-20T16:50:40.624Z,1.85
2023-03-20T16:52:55.304Z,2.50
2023-03-20T16:55:01.928Z,5.68
2023-03-20T16:57:17.410Z,1.95
2023-03-20T16:59:23.188Z,4.05
2023-03-20T17:01:34.041Z,1.48
2023-03-20T17:03:45.939Z,2.65
2023-03-20T17:05:52.501Z,1.25
2023-03-20T17:08:04.274Z,4.00
2023-03-20T17:10:12.636Z,1.13
2023-03-20T17:12:18.199Z,1.58
2023-03-20T17:14:20.728Z,1.10
2023-03-20T17:16:24.793Z,1.77
2023-03-20T17:18:29.024Z,1.25
2023-03-20T17:20:32.210Z,1.15
2023-03-20T17:22:36.377Z,1.25
2023-03-20T17:24:38.716Z,2.88
2023-03-20T17:26:43.264Z,0.82
2023-03-20T17:28:45.583Z,1.30
2023-03-20T17:30:50.149Z,1.27
2023-03-20T17:32:53.479Z,0.95
2023-03-20T17:34:56.149Z,1.25
2023-03-20T17:36:59.960Z,2.05
2023-03-20T17:39:02.584Z,0.88
2023-03-20T17:41:04.985Z,1.00
2023-03-20T17:43:11.645Z,2.30
2023-03-20T17:45:18.553Z,1.77
2023-03-20T17:47:24.781Z,2.42
2023-03-20T17:49:27.839Z,0.95
2023-03-20T17:51:31.174Z,2.42
2023-03-20T17:53:33.596Z,1.23
2023-03-20T17:55:35.785Z,2.97
2023-03-20T17:57:40.272Z,2.47
2023-03-20T17:59:42.475Z,1.95
2023-03-20T18:01:45.936Z,1.95
2023-03-20T18:03:48.109Z,3.75
2023-03-20T18:05:51.695Z,3.67
2023-03-20T18:07:53.799Z,3.30
2023-03-20T18:09:55.832Z,3.72
2023-03-20T18:11:58.073Z,5.13
2023-03-20T18:14:02.159Z,3.90
2023-03-20T18:16:04.681Z,2.28
2023-03-20T18:18:09.278Z,2.65
2023-03-20T18:20:24.906Z,5.78
2023-03-20T18:22:27.084Z,3.47
2023-03-20T18:24:33.367Z,2.92
2023-03-20T18:26:35.796Z,5.30
2023-03-20T18:28:38.097Z,4.95
2023-03-20T18:30:42.442Z,3.55
2023-03-20T18:32:45.202Z,3.15
2023-03-20T18:34:47.468Z,3.05
2023-03-20T18:36:49.625Z,2.78
2023-03-20T18:38:52.773Z,2.72
2023-03-20T18:40:54.918Z,2.85
2023-03-20T18:42:58.273Z,2.47
2023-03-20T18:45:00.524Z,2.95
2023-03-20T18:47:02.764Z,4.00
2023-03-20T18:49:05.120Z,3.85
2023-03-20T18:51:07.531Z,3.28
2023-03-20T18:53:10.762Z,5.13
2023-03-20T18:55:12.898Z,5.60
2023-03-20T18:57:15.233Z,5.13
2023-03-20T18:59:17.316Z,5.07
2023-03-20T19:01:20.938Z,5.03
2023-03-20T19:03:24.810Z,8.25
2023-03-20T19:05:28.961Z,7.35
2023-03-20T19:07:31.024Z,5.70
2023-03-20T19:09:33.015Z,7.40
2023-03-20T19:11:35.414Z,7.93
2023-03-20T19:13:37.744Z,8.93
2023-03-20T19:15:39.867Z,7.60
2023-03-20T19:17:42.052Z,12.95
2023-03-20T19:19:44.281Z,10.05
2023-03-20T19:21:46.701Z,8.95
2023-03-20T19:23:49.084Z,13.30
2023-03-20T19:25:54.839Z,13.10
2023-03-20T19:27:57.182Z,11.82
2023-03-20T19:30:00.606Z,18.88
2023-03-20T19:32:02.887Z,12.07
2023-03-20T19:34:06.088Z,10.60
2023-03-20T19:36:22.298Z,10.90
2023-03-20T19:38:24.604Z,9.98
2023-03-20T19:40:31.704Z,10.50
2023-03-20T19:43:01.576Z,11.45
2023-03-20T19:44:56.090Z,9.07
2023-03-20T19:46:58.411Z,11.80
2023-03-20T19:49:01.421Z,10.65
2023-03-20T19:51:04.609Z,11.73
2023-03-20T19:53:10.296Z,9.75
2023-03-20T19:55:13.569Z,11.63
2023-03-20T19:57:15.704Z,13.13
2023-03-20T19:59:17.828Z,13.35
2023-03-20T20:01:24.006Z,15.85
2023-03-20T20:03:27.477Z,9.00
2023-03-20T20:05:32.924Z,13.23
2023-03-20T20:08:12.732Z,11.60
2023-03-20T20:09:57.417Z,8.30
2023-03-20T20:11:59.809Z,15.93
2023-03-20T20:14:07.080Z,8.07
2023-03-20T20:16:10.813Z,6.80
2023-03-20T20:18:14.572Z,9.65
2023-03-20T20:20:22.741Z,10.88
2023-03-20T20:22:27.751Z,10.95
2023-03-20T20:24:30.089Z,12.05
2023-03-20T20:26:38.901Z,5.30
2023-03-20T20:28:43.292Z,8.07
2023-03-20T20:30:49.664Z,9.02
2023-03-20T20:32:54.386Z,8.77
2023-03-20T20:38:25.287Z,13.38
2023-03-20T20:39:46.303Z,8.43
2023-03-20T20:41:48.964Z,5.35
2023-03-20T20:46:15.258Z,7.65
2023-03-20T20:48:18.972Z,10.02
2023-03-20T20:50:25.227Z,9.73
2023-03-20T20:52:27.496Z,9.25
2023-03-20T20:54:29.870Z,8.73
2023-03-20T20:56:32.276Z,5.25
2023-03-20T20:58:34.697Z,8.93
2023-03-20T21:00:49.439Z,10.48
2023-03-20T21:02:53.670Z,9.73
2023-03-20T21:04:56.533Z,8.95
2023-03-20T21:07:09.282Z,7.35
2023-03-20T21:09:13.358Z,8.60
2023-03-20T21:11:17.006Z,10.80
2023-03-20T21:13:19.481Z,10.38
2023-03-20T21:15:22.037Z,10.35
2023-03-20T21:17:25.435Z,5.43
2023-03-20T21:19:31.044Z,7.90
2023-03-20T21:21:35.272Z,10.38
2023-03-20T21:23:38.408Z,9.55
2023-03-20T21:25:44.674Z,7.50
2023-03-20T21:27:48.751Z,8.13
2023-03-20T21:29:51.265Z,9.07
2023-03-20T21:31:54.679Z,11.18
2023-03-20T21:33:57.160Z,5.72
2023-03-20T21:35:59.984Z,8.57
2023-03-20T21:40:24.376Z,14.20
2023-03-20T21:42:26.691Z,7.80
2023-03-20T21:50:15.133Z,10.10
2023-03-20T21:56:59.846Z,13.65
2023-03-20T22:01:45.894Z,9.43
2023-03-20T22:04:01.695Z,12.23
2023-03-20T22:11:38.429Z,6.95
2023-03-20T22:16:03.545Z,10.98
2023-03-20T22:30:15.101Z,10.32
2023-03-20T22:39:45.795Z,8.73
2023-03-20T22:46:43.804Z,11.40
2023-03-20T22:48:36.799Z,9.85
2023-03-20T22:50:39.253Z,10.05
2023-03-20T22:52:49.242Z,11.05
2023-03-20T22:54:52.183Z,8.20
2023-03-20T22:56:54.370Z,11.32
2023-03-20T22:58:56.541Z,13.25
2023-03-20T23:00:58.926Z,10.95
2023-03-20T23:03:15.301Z,8.48
2023-03-20T23:07:24.163Z,5.65
2023-03-20T23:09:26.451Z,9.82
2023-03-20T23:11:28.927Z,12.70
2023-03-20T23:13:31.117Z,14.43
2023-03-20T23:15:33.439Z,11.20
2023-03-20T23:17:35.981Z,10.25
2023-03-20T23:19:48.799Z,7.45
2023-03-20T23:21:54.080Z,11.40
2023-03-20T23:23:56.619Z,14.55
2023-03-20T23:26:05.258Z,11.68
2023-03-20T23:28:09.902Z,11.30
2023-03-20T23:30:13.307Z,9.65
2023-03-20T23:32:15.645Z,11.43
2023-03-20T23:34:18.271Z,9.63
2023-03-20T23:36:34.892Z,13.45
2023-03-20T23:38:37.867Z,12.90
2023-03-20T23:40:40.142Z,7.18
2023-03-20T23:42:42.472Z,14.52
2023-03-20T23:44:55.362Z,13.52
2023-03-20T23:47:03.300Z,15.10
2023-03-20T23:49:07.967Z,12.57
2023-03-20T23:51:10.273Z,8.98
2023-03-20T23:53:20.292Z,7.30
2023-03-20T23:55:22.800Z,20.33
2023-03-20T23:57:25.094Z,15.50
2023-03-20T23:59:27.338Z,8.20
